Time;durP1;ratioP1;P1;durP2;ratioP2;P2;SDS_P1;SDS_P2;PMS_P1;PMS_P2;Temp;Humidity;BMP_temperature;BMP_pressure;BME280_temperature;BME280_humidity;BME280_pressure;Samples;Min_cycle;Max_cycle;Signal;HPM_P1;HPM_P2
2023/07/02 00:00:05;;;;;;;;;27.00;21.75;;;;;;;;5093142;28;8828;-76
2023/07/02 00:02:30;;;;;;;;;21.75;20.50;;;;;;;;5112940;27;8779;-75
2023/07/02 00:04:55;;;;;;;;;23.00;13.00;;;;;;;;5112117;27;11204;-76
2023/07/02 00:07:20;;;;;;;;;24.75;20.25;;;;;;;;5112047;27;9528;-75
2023/07/02 00:09:46;;;;;;;;;27.50;23.25;;;;;;;;5111743;27;8801;-75
2023/07/02 00:12:11;;;;;;;;;24.50;21.00;;;;;;;;5112396;27;8821;-76
2023/07/02 00:14:36;;;;;;;;;29.25;25.75;;;;;;;;5111736;27;8866;-75
2023/07/02 00:17:02;;;;;;;;;25.50;24.50;;;;;;;;5093495;28;8853;-76
2023/07/02 00:19:27;;;;;;;;;24.50;23.50;;;;;;;;5092057;28;8843;-75
2023/07/02 00:21:53;;;;;;;;;22.75;20.50;;;;;;;;5110428;27;8801;-75
2023/07/02 00:24:18;;;;;;;;;24.00;17.00;;;;;;;;5111067;27;8828;-75
2023/07/02 00:26:43;;;;;;;;;27.25;21.75;;;;;;;;5110786;27;10466;-75
2023/07/02 00:29:09;;;;;;;;;24.75;19.50;;;;;;;;5110316;27;8808;-76
2023/07/02 00:31:34;;;;;;;;;30.75;25.25;;;;;;;;5110724;27;8796;-74
2023/07/02 00:34:03;;;;;;;;;28.75;23.00;;;;;;;;5110728;27;8812;-75
2023/07/02 00:36:29;;;;;;;;;32.00;24.00;;;;;;;;5111040;27;8889;-76
2023/07/02 00:38:54;;;;;;;;;26.25;24.50;;;;;;;;5092217;28;10371;-75
2023/07/02 00:41:19;;;;;;;;;25.25;20.50;;;;;;;;5110624;27;8781;-76
2023/07/02 00:43:45;;;;;;;;;25.00;22.25;;;;;;;;5110623;27;8904;-75
2023/07/02 00:46:17;;;;;;;;;23.00;21.75;;;;;;;;5110730;27;8839;-75
2023/07/02 00:48:43;;;;;;;;;23.75;20.50;;;;;;;;5110143;27;8780;-75
2023/07/02 00:51:09;;;;;;;;;22.00;20.25;;;;;;;;5110448;27;10436;-75
2023/07/02 00:53:34;;;;;;;;;24.25;23.00;;;;;;;;5110252;27;10522;-76
2023/07/02 00:56:00;;;;;;;;;17.50;17.50;;;;;;;;5110566;27;8879;-76
2023/07/02 00:58:25;;;;;;;;;23.25;23.25;;;;;;;;5112220;27;8847;-76
2023/07/02 01:00:50;;;;;;;;;30.50;23.00;;;;;;;;5114207;27;9541;-76
2023/07/02 01:03:16;;;;;;;;;30.25;21.00;;;;;;;;5113723;27;8881;-76
2023/07/02 01:05:41;;;;;;;;;23.00;20.50;;;;;;;;5114079;27;8877;-75
2023/07/02 01:08:06;;;;;;;;;26.50;19.50;;;;;;;;5113867;27;8812;-75
2023/07/02 01:10:32;;;;;;;;;21.75;18.25;;;;;;;;5113815;27;8823;-75
2023/07/02 01:13:00;;;;;;;;;29.00;24.00;;;;;;;;5114411;27;8883;-82
2023/07/02 01:15:26;;;;;;;;;24.75;20.50;;;;;;;;5114978;27;8784;-83
2023/07/02 01:17:52;;;;;;;;;25.50;20.50;;;;;;;;5114837;27;10551;-82
2023/07/02 01:20:19;;;;;;;;;34.25;29.25;;;;;;;;5113989;27;10324;-80
2023/07/02 01:22:46;;;;;;;;;32.75;22.00;;;;;;;;5119851;27;10498;-83
2023/07/02 01:25:11;;;;;;;;;24.75;20.00;;;;;;;;5125762;27;11251;-82
2023/07/02 01:27:37;;;;;;;;;20.50;19.00;;;;;;;;5126790;27;10560;-83
2023/07/02 01:30:02;;;;;;;;;19.25;16.25;;;;;;;;5118129;27;8899;-82
2023/07/02 01:32:28;;;;;;;;;27.50;21.25;;;;;;;;5130781;27;9517;-81
2023/07/02 01:34:53;;;;;;;;;22.00;17.50;;;;;;;;5113461;28;9024;-81
2023/07/02 01:37:18;;;;;;;;;28.25;21.00;;;;;;;;5113779;27;8820;-79
2023/07/02 01:39:44;;;;;;;;;28.00;27.75;;;;;;;;5096020;28;8808;-82
2023/07/02 01:42:15;;;;;;;;;23.50;21.50;;;;;;;;5113462;28;8805;-81
2023/07/02 01:44:41;;;;;;;;;32.00;24.50;;;;;;;;5113676;27;8842;-82
2023/07/02 01:47:06;;;;;;;;;28.00;23.50;;;;;;;;5113213;28;10510;-80
2023/07/02 01:49:32;;;;;;;;;23.00;21.75;;;;;;;;5113597;28;8879;-81
2023/07/02 01:51:57;;;;;;;;;20.75;16.75;;;;;;;;5113286;28;8943;-80
2023/07/02 01:54:24;;;;;;;;;24.25;22.25;;;;;;;;5078482;28;8913;-82
2023/07/02 01:56:49;;;;;;;;;28.00;24.50;;;;;;;;5113154;27;8773;-82
2023/07/02 01:59:14;;;;;;;;;27.75;23.00;;;;;;;;5113165;28;10618;-80
2023/07/02 02:01:40;;;;;;;;;22.00;21.50;;;;;;;;5114120;27;8777;-82
2023/07/02 02:04:06;;;;;;;;;25.25;22.25;;;;;;;;5113944;28;9513;-82
2023/07/02 02:06:31;;;;;;;;;25.00;16.25;;;;;;;;5094967;28;8827;-83
2023/07/02 02:08:56;;;;;;;;;23.75;21.50;;;;;;;;5112878;27;8781;-83
2023/07/02 02:11:21;;;;;;;;;24.00;23.00;;;;;;;;5112909;28;8801;-82
2023/07/02 02:13:48;;;;;;;;;24.75;20.25;;;;;;;;5114146;28;8800;-83
2023/07/02 02:16:14;;;;;;;;;28.75;21.75;;;;;;;;5113974;28;8785;-83
2023/07/02 02:18:39;;;;;;;;;28.50;25.50;;;;;;;;5095763;28;10627;-83
2023/07/02 02:21:04;;;;;;;;;30.00;22.75;;;;;;;;5115170;28;8825;-83
2023/07/02 02:23:29;;;;;;;;;38.25;30.25;;;;;;;;5095849;28;8806;-81
2023/07/02 02:25:54;;;;;;;;;21.00;20.50;;;;;;;;5113358;27;9534;-81
2023/07/02 02:28:20;;;;;;;;;29.50;27.75;;;;;;;;5113488;27;8890;-81
2023/07/02 02:30:45;;;;;;;;;32.50;29.50;;;;;;;;5113517;27;8808;-82
2023/07/02 02:33:10;;;;;;;;;32.50;27.00;;;;;;;;5113208;28;8864;-81
2023/07/02 02:35:35;;;;;;;;;27.75;22.75;;;;;;;;5113211;27;8797;-79
2023/07/02 02:38:02;;;;;;;;;23.50;23.25;;;;;;;;5113201;28;8778;-81
2023/07/02 02:40:27;;;;;;;;;22.00;17.50;;;;;;;;5113282;28;8751;-83
2023/07/02 02:42:52;;;;;;;;;19.25;16.50;;;;;;;;5113947;27;10450;-81
2023/07/02 02:45:17;;;;;;;;;24.50;23.00;;;;;;;;5113239;27;8789;-82
2023/07/02 02:47:42;;;;;;;;;19.00;16.00;;;;;;;;5113474;28;8778;-82
2023/07/02 02:50:09;;;;;;;;;20.25;18.25;;;;;;;;5113227;28;8790;-82
2023/07/02 02:52:34;;;;;;;;;25.50;21.00;;;;;;;;5094375;28;8809;-82
2023/07/02 02:55:00;;;;;;;;;23.25;22.00;;;;;;;;5113199;27;10426;-81
2023/07/02 02:57:25;;;;;;;;;27.25;23.50;;;;;;;;5088117;27;45372;-81
2023/07/02 02:59:50;;;;;;;;;19.00;15.75;;;;;;;;5077198;28;45372;-79
2023/07/02 03:02:15;;;;;;;;;22.50;18.75;;;;;;;;5077222;27;45482;-81
2023/07/02 03:04:41;;;;;;;;;27.00;25.25;;;;;;;;5076912;27;45887;-82
2023/07/02 03:07:07;;;;;;;;;22.50;20.00;;;;;;;;5076744;28;45322;-82
2023/07/02 03:09:32;;;;;;;;;22.75;20.50;;;;;;;;5058581;28;45355;-84
2023/07/02 03:11:58;;;;;;;;;23.00;19.25;;;;;;;;5076115;27;45268;-84
2023/07/02 03:14:23;;;;;;;;;20.75;17.75;;;;;;;;5076622;28;46144;-83
2023/07/02 03:16:48;;;;;;;;;25.50;23.75;;;;;;;;5076739;28;45429;-82
2023/07/02 03:19:15;;;;;;;;;30.25;19.25;;;;;;;;5076864;28;45350;-83
2023/07/02 03:21:42;;;;;;;;;20.00;19.00;;;;;;;;5057235;28;45558;-84
2023/07/02 03:24:07;;;;;;;;;22.75;20.50;;;;;;;;5075755;27;45426;-83
2023/07/02 03:26:32;;;;;;;;;22.50;17.75;;;;;;;;5075288;28;45442;-82
2023/07/02 03:28:57;;;;;;;;;23.25;19.00;;;;;;;;5057610;28;45398;-82
2023/07/02 03:31:22;;;;;;;;;23.75;21.25;;;;;;;;5076478;28;45316;-83
2023/07/02 03:33:48;;;;;;;;;26.50;24.25;;;;;;;;5057717;28;47988;-83
2023/07/02 03:36:13;;;;;;;;;22.25;20.75;;;;;;;;5075888;27;45356;-83
2023/07/02 03:38:38;;;;;;;;;23.25;22.00;;;;;;;;5076555;28;45333;-83
2023/07/02 03:41:03;;;;;;;;;27.00;21.50;;;;;;;;5076406;28;45249;-82
2023/07/02 03:43:28;;;;;;;;;26.75;21.00;;;;;;;;5076066;28;46049;-84
2023/07/02 03:45:54;;;;;;;;;22.50;19.50;;;;;;;;5076194;27;45356;-83
2023/07/02 03:48:19;;;;;;;;;22.75;20.25;;;;;;;;5057881;28;45392;-83
2023/07/02 03:50:44;;;;;;;;;24.75;19.75;;;;;;;;5057200;28;45510;-83
2023/07/02 03:53:09;;;;;;;;;25.75;21.50;;;;;;;;5076037;28;46939;-82
2023/07/02 03:55:35;;;;;;;;;28.50;23.00;;;;;;;;5075693;28;45220;-83
2023/07/02 03:58:00;;;;;;;;;22.75;20.50;;;;;;;;5076200;28;45316;-82
2023/07/02 04:00:25;;;;;;;;;14.75;12.00;;;;;;;;5076292;28;45659;-82
2023/07/02 04:02:51;;;;;;;;;25.00;20.00;;;;;;;;5075893;28;45375;-82
2023/07/02 04:05:16;;;;;;;;;22.25;20.25;;;;;;;;5075385;27;45340;-83
2023/07/02 04:07:41;;;;;;;;;26.00;23.25;;;;;;;;5058079;28;45396;-83
2023/07/02 04:10:07;;;;;;;;;23.50;17.75;;;;;;;;5076133;28;45362;-83
2023/07/02 04:12:32;;;;;;;;;21.50;18.00;;;;;;;;5076770;28;45573;-82
2023/07/02 04:14:57;;;;;;;;;13.00;11.25;;;;;;;;5058361;28;45491;-83
2023/07/02 04:17:22;;;;;;;;;23.50;20.00;;;;;;;;5077085;28;45445;-83
2023/07/02 04:19:48;;;;;;;;;18.25;18.25;;;;;;;;5076247;28;45387;-82
2023/07/02 04:22:14;;;;;;;;;21.75;17.75;;;;;;;;5075676;28;45891;-82
2023/07/02 04:24:39;;;;;;;;;23.50;17.50;;;;;;;;5076498;28;45458;-82
2023/07/02 04:27:05;;;;;;;;;28.50;23.50;;;;;;;;5076815;28;45454;-82
2023/07/02 04:29:30;;;;;;;;;20.75;19.50;;;;;;;;5077130;28;45548;-83
2023/07/02 04:31:56;;;;;;;;;21.50;17.25;;;;;;;;5057825;28;49579;-81
2023/07/02 04:34:21;;;;;;;;;21.25;18.75;;;;;;;;5076433;28;45582;-82
2023/07/02 04:36:47;;;;;;;;;20.00;18.50;;;;;;;;5076214;27;45410;-82
2023/07/02 04:39:12;;;;;;;;;16.75;15.75;;;;;;;;5075753;28;45409;-82
2023/07/02 04:41:37;;;;;;;;;23.00;20.50;;;;;;;;5076394;27;46197;-82
2023/07/02 04:44:02;;;;;;;;;18.75;15.75;;;;;;;;5077004;28;45510;-81
2023/07/02 04:46:28;;;;;;;;;22.50;20.00;;;;;;;;5076033;28;45731;-82
2023/07/02 04:48:53;;;;;;;;;24.75;16.50;;;;;;;;5075969;28;45506;-81
2023/07/02 04:51:19;;;;;;;;;22.25;16.25;;;;;;;;5075770;28;45564;-82
2023/07/02 04:53:45;;;;;;;;;20.00;17.25;;;;;;;;5076179;27;45288;-82
2023/07/02 04:56:10;;;;;;;;;21.00;17.00;;;;;;;;5057727;27;45384;-82
2023/07/02 04:58:35;;;;;;;;;20.25;19.50;;;;;;;;5075878;28;45375;-82
2023/07/02 05:01:01;;;;;;;;;19.50;17.50;;;;;;;;5075519;28;45374;-81
2023/07/02 05:03:26;;;;;;;;;23.00;18.00;;;;;;;;5075694;28;45335;-82
2023/07/02 05:05:51;;;;;;;;;19.25;16.25;;;;;;;;5075886;28;45403;-82
2023/07/02 05:08:16;;;;;;;;;19.25;16.75;;;;;;;;5075693;28;45538;-82
2023/07/02 05:10:42;;;;;;;;;18.50;15.50;;;;;;;;5075239;28;46962;-82
2023/07/02 05:13:07;;;;;;;;;22.75;19.75;;;;;;;;5075462;28;45340;-82
2023/07/02 05:15:32;;;;;;;;;16.50;15.00;;;;;;;;5057509;28;45338;-82
2023/07/02 05:17:57;;;;;;;;;25.00;17.50;;;;;;;;5075440;28;45390;-82
2023/07/02 05:20:22;;;;;;;;;29.00;19.75;;;;;;;;5075368;28;46314;-82
2023/07/02 05:22:48;;;;;;;;;18.50;17.50;;;;;;;;5075027;27;45343;-80
2023/07/02 05:25:13;;;;;;;;;14.50;10.00;;;;;;;;5075766;27;45444;-82
2023/07/02 05:27:38;;;;;;;;;22.75;17.50;;;;;;;;5075847;28;45357;-82
2023/07/02 05:30:04;;;;;;;;;19.00;17.75;;;;;;;;5075678;28;47395;-81
2023/07/02 05:32:29;;;;;;;;;19.25;16.25;;;;;;;;5075395;28;45418;-81
2023/07/02 05:34:54;;;;;;;;;18.75;15.25;;;;;;;;5075133;28;45367;-81
2023/07/02 05:37:19;;;;;;;;;15.50;14.75;;;;;;;;5087538;27;44813;-81
2023/07/02 05:39:44;;;;;;;;;22.25;15.50;;;;;;;;5090451;28;35902;-82
2023/07/02 05:42:10;;;;;;;;;17.25;13.25;;;;;;;;5071216;28;44842;-81
2023/07/02 05:44:35;;;;;;;;;12.50;12.50;;;;;;;;5092640;27;28473;-81
2023/07/02 05:47:00;;;;;;;;;21.75;16.75;;;;;;;;5094595;27;28365;-80
2023/07/02 05:49:26;;;;;;;;;18.75;15.50;;;;;;;;5094724;28;32247;-81
2023/07/02 05:51:51;;;;;;;;;13.00;10.50;;;;;;;;5094943;27;28396;-80
2023/07/02 05:54:16;;;;;;;;;21.00;17.00;;;;;;;;5094850;28;28326;-79
2023/07/02 05:56:42;;;;;;;;;16.00;15.25;;;;;;;;5089768;27;45357;-81
2023/07/02 05:59:07;;;;;;;;;16.25;15.25;;;;;;;;5088547;28;46013;-81
2023/07/02 06:01:32;;;;;;;;;14.75;14.25;;;;;;;;5093870;28;28440;-80
2023/07/02 06:03:57;;;;;;;;;20.75;16.00;;;;;;;;5095432;28;28364;-80
2023/07/02 06:06:24;;;;;;;;;15.50;15.25;;;;;;;;5095627;28;28604;-82
2023/07/02 06:08:49;;;;;;;;;22.25;14.25;;;;;;;;5095337;27;29102;-81
2023/07/02 06:11:15;;;;;;;;;19.00;16.75;;;;;;;;5093380;28;28372;-82
2023/07/02 06:13:40;;;;;;;;;12.75;12.75;;;;;;;;5093788;28;28332;-77
2023/07/02 06:16:05;;;;;;;;;22.00;18.50;;;;;;;;5093449;28;28551;-77
2023/07/02 06:18:30;;;;;;;;;16.00;15.00;;;;;;;;5093383;28;29191;-77
2023/07/02 06:20:55;;;;;;;;;23.00;17.75;;;;;;;;5093470;27;28329;-77
2023/07/02 06:23:21;;;;;;;;;22.75;17.25;;;;;;;;5093273;28;28403;-77
2023/07/02 06:25:46;;;;;;;;;14.00;12.00;;;;;;;;5075263;28;28368;-77
2023/07/02 06:28:11;;;;;;;;;16.25;13.25;;;;;;;;5093473;28;28410;-77
2023/07/02 06:30:36;;;;;;;;;22.50;15.50;;;;;;;;5093653;28;28295;-76
2023/07/02 06:33:01;;;;;;;;;18.25;15.75;;;;;;;;5093941;28;28540;-75
2023/07/02 06:35:27;;;;;;;;;15.50;14.50;;;;;;;;5093731;28;28317;-77
2023/07/02 06:37:52;;;;;;;;;10.25;9.50;;;;;;;;5093210;28;28355;-77
2023/07/02 06:40:17;;;;;;;;;24.00;18.75;;;;;;;;5093642;28;28442;-82
2023/07/02 06:42:42;;;;;;;;;16.75;13.75;;;;;;;;5093514;28;28476;-79
2023/07/02 06:45:08;;;;;;;;;17.00;12.50;;;;;;;;5093683;27;28443;-77
2023/07/02 06:47:33;;;;;;;;;18.50;16.00;;;;;;;;5093602;27;28411;-80
2023/07/02 06:49:59;;;;;;;;;19.50;16.00;;;;;;;;5093595;28;28449;-78
2023/07/02 06:52:24;;;;;;;;;18.00;16.25;;;;;;;;5093451;28;28544;-78
2023/07/02 06:54:49;;;;;;;;;13.00;13.00;;;;;;;;5093537;27;28458;-78
2023/07/02 06:57:15;;;;;;;;;18.50;16.00;;;;;;;;5092456;28;28507;-78
2023/07/02 06:59:40;;;;;;;;;15.50;14.50;;;;;;;;5090901;27;28676;-80
2023/07/02 07:02:05;;;;;;;;;19.25;18.00;;;;;;;;5091839;28;28623;-78
2023/07/02 07:04:31;;;;;;;;;17.75;17.00;;;;;;;;5092318;28;28468;-78
2023/07/02 07:06:56;;;;;;;;;11.50;11.25;;;;;;;;5074030;28;30348;-78
2023/07/02 07:09:22;;;;;;;;;22.25;19.00;;;;;;;;5108240;27;29667;-79
2023/07/02 07:11:47;;;;;;;;;17.00;16.75;;;;;;;;5093233;27;28532;-79
2023/07/02 07:14:12;;;;;;;;;18.50;15.00;;;;;;;;5074556;28;28623;-79
2023/07/02 07:16:37;;;;;;;;;22.75;18.50;;;;;;;;5092720;28;28437;-79
2023/07/02 07:19:03;;;;;;;;;13.50;13.50;;;;;;;;5074969;28;30183;-78
2023/07/02 07:21:28;;;;;;;;;17.75;14.00;;;;;;;;5093204;28;28463;-79
2023/07/02 07:23:53;;;;;;;;;16.00;14.50;;;;;;;;5093231;28;28461;-78
2023/07/02 07:26:18;;;;;;;;;14.50;13.00;;;;;;;;5058079;28;29716;-80
2023/07/02 07:28:44;;;;;;;;;22.75;18.75;;;;;;;;5093258;28;28654;-79
2023/07/02 07:31:09;;;;;;;;;19.25;17.00;;;;;;;;5093762;28;28437;-79
2023/07/02 07:33:34;;;;;;;;;19.00;14.75;;;;;;;;5093742;28;28411;-78
2023/07/02 07:35:59;;;;;;;;;17.00;14.00;;;;;;;;5093166;28;28316;-77
2023/07/02 07:38:25;;;;;;;;;11.75;8.75;;;;;;;;5092677;28;28464;-77
2023/07/02 07:40:51;;;;;;;;;13.75;13.00;;;;;;;;5088222;28;45445;-77
2023/07/02 07:43:16;;;;;;;;;18.00;15.00;;;;;;;;5084210;28;45368;-78
2023/07/02 07:45:41;;;;;;;;;27.00;19.00;;;;;;;;5088068;28;44610;-78
2023/07/02 07:48:06;;;;;;;;;14.75;14.75;;;;;;;;5091713;28;44618;-79
2023/07/02 07:50:32;;;;;;;;;16.75;16.25;;;;;;;;5092662;28;28402;-77
2023/07/02 07:52:58;;;;;;;;;16.75;15.75;;;;;;;;5089377;27;42874;-77
2023/07/02 07:55:23;;;;;;;;;13.25;13.25;;;;;;;;5089389;28;45130;-80
2023/07/02 07:57:48;;;;;;;;;17.50;12.50;;;;;;;;5081973;28;45384;-78
2023/07/02 08:00:14;;;;;;;;;17.00;13.75;;;;;;;;5080376;27;45400;-78
2023/07/02 08:02:39;;;;;;;;;20.50;18.75;;;;;;;;5058063;28;45435;-79
2023/07/02 08:05:04;;;;;;;;;17.75;12.25;;;;;;;;5076274;27;47051;-79
2023/07/02 08:07:31;;;;;;;;;17.50;13.00;;;;;;;;5058057;28;45712;-78
2023/07/02 08:09:56;;;;;;;;;15.25;14.25;;;;;;;;5077289;27;45283;-78
2023/07/02 08:12:21;;;;;;;;;17.50;14.25;;;;;;;;5091424;28;38665;-79
2023/07/02 08:14:46;;;;;;;;;21.75;18.50;;;;;;;;5078247;28;28426;-81
2023/07/02 08:17:11;;;;;;;;;21.25;12.75;;;;;;;;5100408;27;45389;-79
2023/07/02 08:19:37;;;;;;;;;8.25;6.75;;;;;;;;5076739;28;45371;-79
2023/07/02 08:22:02;;;;;;;;;19.50;16.00;;;;;;;;5075982;28;45319;-79
2023/07/02 08:24:28;;;;;;;;;23.75;15.00;;;;;;;;5058476;28;46891;-79
2023/07/02 08:26:53;;;;;;;;;11.50;11.50;;;;;;;;5083090;28;45348;-79
2023/07/02 08:29:18;;;;;;;;;15.75;13.75;;;;;;;;5077066;28;45344;-79
2023/07/02 08:31:44;;;;;;;;;14.75;13.00;;;;;;;;5058048;28;45411;-79
2023/07/02 08:34:09;;;;;;;;;16.00;12.50;;;;;;;;5075723;27;45808;-79
2023/07/02 08:36:34;;;;;;;;;13.50;13.25;;;;;;;;5075794;27;45322;-79
2023/07/02 08:38:59;;;;;;;;;18.50;15.25;;;;;;;;5075834;28;45216;-79
2023/07/02 08:41:25;;;;;;;;;13.00;12.50;;;;;;;;5074900;28;45313;-79
2023/07/02 08:43:51;;;;;;;;;23.75;16.50;;;;;;;;5075515;28;47258;-79
2023/07/02 08:46:17;;;;;;;;;14.75;13.50;;;;;;;;5082020;28;45388;-79
2023/07/02 08:48:42;;;;;;;;;14.00;12.75;;;;;;;;5075776;28;45326;-79
2023/07/02 08:51:07;;;;;;;;;11.75;11.75;;;;;;;;5076109;28;45261;-80
2023/07/02 08:53:33;;;;;;;;;14.25;12.50;;;;;;;;5057512;28;48241;-79
2023/07/02 08:55:59;;;;;;;;;15.25;13.00;;;;;;;;5076041;28;45343;-78
2023/07/02 08:58:25;;;;;;;;;15.25;14.50;;;;;;;;5076127;28;45434;-79
2023/07/02 09:01:06;;;;;;;;;17.75;15.25;;;;;;;;5076233;28;45410;-79
2023/07/02 09:03:31;;;;;;;;;14.25;12.00;;;;;;;;5057143;28;48266;-79
2023/07/02 09:05:58;;;;;;;;;12.50;10.75;;;;;;;;5075127;28;45547;-79
2023/07/02 09:08:27;;;;;;;;;12.00;12.00;;;;;;;;5069530;27;45489;-80
2023/07/02 09:10:52;;;;;;;;;14.00;10.25;;;;;;;;5061187;28;45453;-80
2023/07/02 09:13:18;;;;;;;;;14.50;12.50;;;;;;;;5072369;28;46437;-79
2023/07/02 09:15:43;;;;;;;;;10.50;10.50;;;;;;;;5057907;28;45406;-79
2023/07/02 09:18:18;;;;;;;;;8.75;8.75;;;;;;;;5071609;28;45568;-80
2023/07/02 09:20:43;;;;;;;;;13.75;12.25;;;;;;;;5072524;28;45354;-79
2023/07/02 09:23:08;;;;;;;;;15.25;12.00;;;;;;;;5060251;28;46298;-80
2023/07/02 09:25:36;;;;;;;;;15.50;12.50;;;;;;;;5059966;28;46054;-80
2023/07/02 09:28:01;;;;;;;;;13.25;12.50;;;;;;;;5078727;27;45249;-79
2023/07/02 09:30:26;;;;;;;;;12.75;12.00;;;;;;;;5078610;28;45284;-79
2023/07/02 09:32:53;;;;;;;;;9.50;9.00;;;;;;;;5059986;28;47101;-79
2023/07/02 09:35:19;;;;;;;;;13.50;12.50;;;;;;;;5078748;27;45371;-78
2023/07/02 09:37:44;;;;;;;;;11.00;11.00;;;;;;;;5078578;27;45343;-79
2023/07/02 09:40:10;;;;;;;;;12.75;11.75;;;;;;;;5078769;27;45419;-81
2023/07/02 09:42:35;;;;;;;;;11.50;10.75;;;;;;;;5078832;28;46464;-80
2023/07/02 09:45:02;;;;;;;;;11.00;11.00;;;;;;;;5061173;28;45941;-80
2023/07/02 09:47:28;;;;;;;;;16.25;12.75;;;;;;;;5079252;27;45438;-81
2023/07/02 09:50:05;;;;;;;;;14.50;12.00;;;;;;;;5079120;27;45531;-79
2023/07/02 09:52:31;;;;;;;;;10.75;10.00;;;;;;;;5078906;27;45323;-81
2023/07/02 09:54:56;;;;;;;;;12.75;12.75;;;;;;;;5078648;27;45300;-79
2023/07/02 09:57:21;;;;;;;;;13.00;10.50;;;;;;;;5079680;27;45714;-80
2023/07/02 09:59:46;;;;;;;;;12.25;10.25;;;;;;;;5080038;28;45363;-80
2023/07/02 10:02:13;;;;;;;;;10.75;9.50;;;;;;;;5080048;28;46037;-80
2023/07/02 10:04:45;;;;;;;;;12.00;10.75;;;;;;;;5079358;28;45509;-81
2023/07/02 10:07:10;;;;;;;;;12.00;10.25;;;;;;;;5079045;28;45444;-81
2023/07/02 10:09:37;;;;;;;;;11.00;10.25;;;;;;;;5078527;27;45439;-80
2023/07/02 10:12:14;;;;;;;;;14.00;9.50;;;;;;;;5078948;27;46265;-79
2023/07/02 10:14:40;;;;;;;;;12.25;9.25;;;;;;;;5060509;28;45554;-80
2023/07/02 10:17:05;;;;;;;;;10.25;9.75;;;;;;;;5078632;28;45371;-81
2023/07/02 10:19:31;;;;;;;;;12.75;10.25;;;;;;;;5075370;27;45555;-80
2023/07/02 10:22:03;;;;;;;;;12.00;11.00;;;;;;;;5077001;28;45600;-80
2023/07/02 10:24:28;;;;;;;;;13.00;10.25;;;;;;;;5074709;27;46553;-79
2023/07/02 10:26:55;;;;;;;;;11.75;10.50;;;;;;;;5078543;28;45348;-80
2023/07/02 10:29:21;;;;;;;;;13.75;13.25;;;;;;;;5066193;28;45530;-80
2023/07/02 10:31:50;;;;;;;;;14.75;10.50;;;;;;;;5061063;28;47389;-79
2023/07/02 10:34:15;;;;;;;;;10.75;9.25;;;;;;;;5078023;28;45204;-79
2023/07/02 10:36:40;;;;;;;;;7.25;7.25;;;;;;;;5059887;28;45320;-79
2023/07/02 10:39:05;;;;;;;;;16.50;14.25;;;;;;;;5078191;28;45411;-80
2023/07/02 10:41:31;;;;;;;;;11.75;9.75;;;;;;;;5078119;28;47558;-79
2023/07/02 10:44:06;;;;;;;;;14.00;11.75;;;;;;;;5077810;28;45279;-79
2023/07/02 10:46:31;;;;;;;;;13.25;10.25;;;;;;;;5076003;27;45368;-79
2023/07/02 10:48:57;;;;;;;;;12.50;12.50;;;;;;;;5076787;27;45327;-80
2023/07/02 10:51:23;;;;;;;;;9.50;9.50;;;;;;;;5076480;27;46522;-80
2023/07/02 10:54:02;;;;;;;;;50.00;37.75;;;;;;;;5076994;27;45478;-79
2023/07/02 10:56:27;;;;;;;;;26.75;21.00;;;;;;;;5086738;27;45488;-78
2023/07/02 10:58:53;;;;;;;;;19.25;17.00;;;;;;;;5083804;27;45535;-79
2023/07/02 11:01:25;;;;;;;;;12.25;10.25;;;;;;;;5117947;27;46415;-81
2023/07/02 11:03:57;;;;;;;;;12.00;11.00;;;;;;;;5118533;27;8787;-81
2023/07/02 11:06:22;;;;;;;;;8.75;8.00;;;;;;;;5125330;27;10024;-81
2023/07/02 11:08:47;;;;;;;;;12.50;12.50;;;;;;;;5126420;27;10119;-81
2023/07/02 11:11:12;;;;;;;;;9.00;9.00;;;;;;;;5118250;27;8805;-80
2023/07/02 11:13:45;;;;;;;;;12.75;8.50;;;;;;;;5130591;27;8824;-80
2023/07/02 11:16:22;;;;;;;;;16.50;12.75;;;;;;;;5120972;27;8790;-80
2023/07/02 11:18:47;;;;;;;;;14.25;12.50;;;;;;;;5120772;27;10144;-80
2023/07/02 11:21:13;;;;;;;;;14.00;13.25;;;;;;;;5129071;27;9980;-80
2023/07/02 11:23:38;;;;;;;;;12.25;10.50;;;;;;;;5119936;27;8887;-80
2023/07/02 11:26:04;;;;;;;;;17.75;16.00;;;;;;;;5127051;27;8817;-80
2023/07/02 11:28:30;;;;;;;;;16.00;13.50;;;;;;;;5123082;27;9538;-80
2023/07/02 11:30:56;;;;;;;;;13.75;13.50;;;;;;;;5119530;27;8792;-79
2023/07/02 11:33:40;;;;;;;;;20.25;17.75;;;;;;;;5145650;27;10116;-80
2023/07/02 11:36:05;;;;;;;;;13.25;11.25;;;;;;;;5123675;27;9566;-80
2023/07/02 11:38:33;;;;;;;;;12.50;11.50;;;;;;;;5112878;27;10124;-80
2023/07/02 11:40:59;;;;;;;;;22.50;20.50;;;;;;;;5118883;27;8787;-77
2023/07/02 11:43:24;;;;;;;;;15.00;11.25;;;;;;;;5128734;27;10266;-78
2023/07/02 11:45:50;;;;;;;;;8.50;7.75;;;;;;;;5116120;27;8877;-79
2023/07/02 11:48:15;;;;;;;;;13.75;11.25;;;;;;;;5123950;27;8796;-79
2023/07/02 11:50:40;;;;;;;;;7.00;7.00;;;;;;;;5103838;27;8917;-79
2023/07/02 11:53:05;;;;;;;;;10.75;8.50;;;;;;;;5127741;27;8822;-78
2023/07/02 11:55:31;;;;;;;;;8.75;8.25;;;;;;;;5115437;27;8812;-78
2023/07/02 11:57:56;;;;;;;;;7.00;6.00;;;;;;;;5142950;27;8808;-79
2023/07/02 12:00:21;;;;;;;;;8.75;8.75;;;;;;;;5136909;27;8814;-79
2023/07/02 12:02:46;;;;;;;;;11.25;9.75;;;;;;;;5119636;27;8781;-79
2023/07/02 12:05:12;;;;;;;;;14.75;10.50;;;;;;;;5127883;27;8867;-79
2023/07/02 12:07:37;;;;;;;;;14.50;10.50;;;;;;;;5096836;27;8807;-80
2023/07/02 12:10:02;;;;;;;;;8.00;8.00;;;;;;;;5118866;27;8802;-80
2023/07/02 12:12:27;;;;;;;;;9.00;8.25;;;;;;;;5147478;27;8925;-79
2023/07/02 12:14:52;;;;;;;;;7.50;7.50;;;;;;;;5135450;27;8819;-79
2023/07/02 12:17:18;;;;;;;;;8.00;7.00;;;;;;;;5128373;27;8805;-80
2023/07/02 12:19:43;;;;;;;;;9.75;7.25;;;;;;;;5115203;27;8814;-79
2023/07/02 12:22:08;;;;;;;;;8.75;8.75;;;;;;;;5124748;27;8813;-78
2023/07/02 12:24:33;;;;;;;;;14.25;10.25;;;;;;;;5109252;28;8815;-80
2023/07/02 12:26:59;;;;;;;;;9.00;8.00;;;;;;;;5126064;27;8799;-80
2023/07/02 12:29:24;;;;;;;;;7.75;6.00;;;;;;;;5115647;27;8881;-79
2023/07/02 12:31:49;;;;;;;;;9.50;6.50;;;;;;;;5116588;27;8815;-82
2023/07/02 12:34:14;;;;;;;;;11.50;11.50;;;;;;;;5124354;27;8848;-78
2023/07/02 12:36:40;;;;;;;;;6.00;4.75;;;;;;;;5120561;27;8785;-80
2023/07/02 12:39:06;;;;;;;;;7.75;7.50;;;;;;;;5115922;27;44743;-78
2023/07/02 12:41:31;;;;;;;;;7.75;6.25;;;;;;;;5078065;27;45611;-78
2023/07/02 12:43:56;;;;;;;;;12.25;8.00;;;;;;;;5090591;27;45588;-76
2023/07/02 12:46:21;;;;;;;;;6.75;6.75;;;;;;;;5084006;27;45409;-75
2023/07/02 12:48:47;;;;;;;;;9.25;7.25;;;;;;;;5082438;27;45413;-75
2023/07/02 12:51:12;;;;;;;;;7.25;6.00;;;;;;;;5090928;27;45438;-77
2023/07/02 12:53:37;;;;;;;;;8.00;8.00;;;;;;;;5077206;27;45399;-76
2023/07/02 12:56:03;;;;;;;;;8.00;6.75;;;;;;;;5105007;27;45533;-76
2023/07/02 12:58:28;;;;;;;;;7.75;7.75;;;;;;;;5066808;27;46286;-76
2023/07/02 13:00:55;;;;;;;;;7.00;7.00;;;;;;;;5064020;28;45387;-76
2023/07/02 13:03:20;;;;;;;;;9.00;8.75;;;;;;;;5107157;27;45417;-76
2023/07/02 13:05:45;;;;;;;;;6.75;6.75;;;;;;;;5078583;27;45319;-77
2023/07/02 13:08:10;;;;;;;;;7.25;6.00;;;;;;;;5098703;27;48495;-77
2023/07/02 13:10:37;;;;;;;;;10.00;8.25;;;;;;;;5076218;27;45995;-77
2023/07/02 13:13:02;;;;;;;;;7.50;7.50;;;;;;;;5095106;27;45404;-77
2023/07/02 13:15:28;;;;;;;;;7.50;6.50;;;;;;;;5093588;27;45267;-77
2023/07/02 13:17:53;;;;;;;;;5.50;4.25;;;;;;;;5089649;27;46078;-77
2023/07/02 13:20:18;;;;;;;;;8.75;7.75;;;;;;;;5082981;27;45559;-78
2023/07/02 13:22:44;;;;;;;;;6.00;6.00;;;;;;;;5083086;27;45446;-75
2023/07/02 13:25:09;;;;;;;;;5.00;5.00;;;;;;;;5089732;27;45383;-76
2023/07/02 13:27:34;;;;;;;;;9.50;6.75;;;;;;;;5077933;27;45438;-77
2023/07/02 13:29:59;;;;;;;;;5.50;5.50;;;;;;;;5088866;27;45562;-77
2023/07/02 13:32:24;;;;;;;;;9.00;8.00;;;;;;;;5084333;27;45692;-76
2023/07/02 13:34:50;;;;;;;;;8.25;5.75;;;;;;;;5081822;27;45588;-77
2023/07/02 13:37:18;;;;;;;;;3.00;1.25;;;;;;;;5090710;27;45556;-76
2023/07/02 13:39:43;;;;;;;;;5.25;5.00;;;;;;;;5061012;27;45431;-77
2023/07/02 13:42:08;;;;;;;;;9.25;6.75;;;;;;;;5074772;27;45407;-76
2023/07/02 13:44:34;;;;;;;;;7.00;6.00;;;;;;;;5074800;27;45524;-75
2023/07/02 13:46:59;;;;;;;;;7.50;7.00;;;;;;;;5087874;27;46168;-75
2023/07/02 13:49:24;;;;;;;;;6.25;5.50;;;;;;;;5077209;27;45533;-75
2023/07/02 13:51:50;;;;;;;;;7.75;6.75;;;;;;;;5086115;27;45625;-74
2023/07/02 13:54:16;;;;;;;;;6.00;5.00;;;;;;;;5086771;27;45601;-76
2023/07/02 13:56:41;;;;;;;;;7.00;7.00;;;;;;;;5086026;27;45623;-75
2023/07/02 13:59:06;;;;;;;;;8.00;6.00;;;;;;;;5080379;27;45384;-77
2023/07/02 14:01:32;;;;;;;;;8.25;8.25;;;;;;;;5092548;27;45446;-79
2023/07/02 14:03:58;;;;;;;;;10.25;6.00;;;;;;;;5062724;27;45519;-84
2023/07/02 14:06:23;;;;;;;;;6.50;5.00;;;;;;;;5088846;27;45458;-78
2023/07/02 14:08:48;;;;;;;;;6.75;6.75;;;;;;;;5090597;27;45284;-80
2023/07/02 14:11:13;;;;;;;;;7.25;6.00;;;;;;;;5063637;28;45605;-82
2023/07/02 14:13:38;;;;;;;;;7.00;6.00;;;;;;;;5094551;27;45347;-79
2023/07/02 14:16:04;;;;;;;;;6.25;5.50;;;;;;;;5083702;27;46722;-81